createdAt,value
2023-03-01T00:03:24.989Z,0
2023-03-01T00:18:21.689Z,0
2023-03-01T00:33:18.234Z,0
2023-03-01T00:48:14.394Z,0
2023-03-01T01:03:10.703Z,0
2023-03-01T01:18:07.026Z,0
2023-03-01T01:33:03.078Z,0
2023-03-01T01:47:58.967Z,0
2023-03-01T02:02:55.207Z,0
2023-03-01T02:17:51.083Z,0
2023-03-01T02:32:46.682Z,0
2023-03-01T02:47:42.787Z,0
2023-03-01T03:02:39.246Z,0
2023-03-01T03:17:35.258Z,0
2023-03-01T03:32:31.477Z,0
2023-03-01T03:47:27.690Z,0
2023-03-01T04:02:24.195Z,0
2023-03-01T04:17:20.046Z,0
2023-03-01T04:32:16.403Z,0
2023-03-01T04:47:12.037Z,0
2023-03-01T05:02:08.192Z,0
2023-03-01T05:17:04.440Z,0
2023-03-01T05:32:00.143Z,0
2023-03-01T05:46:56.281Z,0
2023-03-01T06:01:52.300Z,0
2023-03-01T06:16:48.463Z,0
2023-03-01T06:31:44.426Z,0
2023-03-01T06:46:40.282Z,0
2023-03-01T07:01:36.279Z,0
2023-03-01T07:16:32.704Z,0
2023-03-01T07:31:28.633Z,0
2023-03-01T07:46:25.665Z,0
2023-03-01T08:01:22.371Z,0
2023-03-01T08:16:19.001Z,0
2023-03-01T08:31:15.482Z,0
2023-03-01T08:46:12.295Z,0
2023-03-01T09:01:09.783Z,0
2023-03-01T09:16:06.407Z,0
2023-03-01T09:31:03.599Z,0
2023-03-01T09:45:59.830Z,0
2023-03-01T10:00:57.006Z,0.08
2023-03-01T10:15:53.892Z,0.72
2023-03-01T10:30:50.621Z,0.2
2023-03-01T10:45:47.018Z,0.28
2023-03-01T11:00:43.819Z,1.4
2023-03-01T11:15:40.663Z,0.8
2023-03-01T11:30:37.171Z,0.16
2023-03-01T11:45:33.872Z,0.8
2023-03-01T12:00:30.722Z,0.16
2023-03-01T12:15:27.645Z,0.72
2023-03-01T12:30:24.171Z,1.71
2023-03-01T12:45:21.046Z,0.44
2023-03-01T13:00:17.772Z,2.72
2023-03-01T13:15:13.817Z,1
2023-03-01T13:30:10.245Z,1.64
2023-03-01T13:45:06.089Z,1.52
2023-03-01T14:00:02.665Z,2.36
2023-03-01T14:14:57.967Z,2.28
2023-03-01T14:29:54.553Z,1.44
2023-03-01T14:44:50.883Z,0.16
2023-03-01T14:59:47.662Z,0.4
2023-03-01T15:14:47.429Z,1.32
2023-03-01T15:29:40.620Z,0.04
2023-03-01T15:44:43.243Z,0
2023-03-01T15:59:33.197Z,0.32
2023-03-01T16:14:29.394Z,0
2023-03-01T16:29:25.383Z,0.56
2023-03-01T16:44:21.198Z,0
2023-03-01T16:59:16.813Z,0.04
2023-03-01T17:14:12.535Z,0
2023-03-01T17:29:07.759Z,0
2023-03-01T17:44:03.383Z,0
2023-03-01T17:58:58.805Z,0
2023-03-01T18:13:54.600Z,0
2023-03-01T18:28:49.976Z,0
2023-03-01T18:43:46.345Z,0
2023-03-01T18:58:42.347Z,0
2023-03-01T19:13:37.840Z,0
2023-03-01T19:28:33.859Z,0
2023-03-01T19:43:29.647Z,0
2023-03-01T19:58:25.396Z,0
2023-03-01T20:13:21.317Z,0
2023-03-01T20:28:17.460Z,0
2023-03-01T20:43:13.154Z,0
2023-03-01T20:58:09.352Z,0
2023-03-01T21:13:05.189Z,0
2023-03-01T21:28:01.594Z,0
2023-03-01T21:42:57.625Z,0
2023-03-01T21:57:53.179Z,0
2023-03-01T22:12:49.266Z,0
2023-03-01T22:27:45.736Z,0
2023-03-01T22:42:42.088Z,0
2023-03-01T22:57:38.003Z,0
2023-03-01T23:12:34.648Z,0
2023-03-01T23:27:31.246Z,0
2023-03-01T23:42:27.429Z,0
2023-03-01T23:57:23.684Z,0
